WetterOnline ( https://www.wetteronline.de )

Wetter aktuell Nesselwang

Aktuelles Wetter: Kempten (705m)

6-stündlich | Neueste Meldungen
Ortszeit Temperatur Wetter
So, 03.07. 20:00 26.7° C leicht bewölkt
So, 03.07. 14:00 27.7° C wolkenlos
So, 03.07. 8:00 18.3° C wolkenlos
So, 03.07. 2:00 13.6° C fast wolkenlos
Sa, 02.07. 20:00 22.6° C wolkenlos
Sa, 02.07. 14:00 22.0° C wolkenlos
Sa, 02.07. 8:00 10.4° C Nebel
Sa, 02.07. 2:00 10.1° C leicht bewölkt
Ortszeit Temperatur Wetter
So, 03.07. 20:00 26.7° C leicht bewölkt
So, 03.07. 19:50 26.7° C leicht bewölkt
So, 03.07. 19:40 26.5° C wolkig
So, 03.07. 19:30 27.0° C wolkig
So, 03.07. 19:20 27.0° C wolkig
So, 03.07. 19:10 27.7° C wolkig
So, 03.07. 19:00 27.5° C fast wolkenlos
So, 03.07. 18:30 27.7° C wolkenlos
So, 03.07. 18:00 28.2° C wolkenlos
So, 03.07. 17:30 28.3° C fast wolkenlos
So, 03.07. 17:00 28.6° C wolkig
Ortszeit Relative Feuchte Sichtweite
So, 03.07. 20:00 39% 55 km
So, 03.07. 14:00 38% 55 km
So, 03.07. 8:00 68% >70 km
So, 03.07. 2:00 96% 23 km
Sa, 02.07. 20:00 59% >70 km
Sa, 02.07. 14:00 57% 55 km
Sa, 02.07. 8:00 98% 5.0 km
Sa, 02.07. 2:00 97% 26 km
Ortszeit Relative Feuchte Sichtweite
So, 03.07. 20:00 39% 55 km
So, 03.07. 19:50 39% -
So, 03.07. 19:40 41% -
So, 03.07. 19:30 40% 40 km
So, 03.07. 19:20 40% -
So, 03.07. 19:10 38% -
So, 03.07. 19:00 38% 55 km
So, 03.07. 18:30 38% 65 km
So, 03.07. 18:00 36% 55 km
So, 03.07. 17:30 34% 50 km
So, 03.07. 17:00 35% >70 km
Ortszeit Niederschlagsmenge Niederschlagsart
So, 03.07. 20:00 0.0 l/m2 in 12 Std. -
So, 03.07. 14:00 0.0 l/m2 in 6 Std. -
So, 03.07. 8:00 0.0 l/m2 in 12 Std. -
So, 03.07. 2:00 0.0 l/m2 in 6 Std. -
Sa, 02.07. 20:00 0.0 l/m2 in 12 Std. -
Sa, 02.07. 14:00 0.0 l/m2 in 6 Std. -
Sa, 02.07. 8:00 0.1 l/m2 in 12 Std. -
Sa, 02.07. 2:00 0.0 l/m2 in 6 Std. -
Ortszeit Niederschlagsmenge Niederschlagsart
So, 03.07. 20:00 0.0 l/m2 in 1 Std. -
So, 03.07. 19:50 keine Meldung -
So, 03.07. 19:40 keine Meldung -
So, 03.07. 19:30 0.0 l/m2 in 1 Std. -
So, 03.07. 19:20 keine Meldung -
So, 03.07. 19:10 keine Meldung -
So, 03.07. 19:00 0.0 l/m2 in 1 Std. -
So, 03.07. 18:30 0.0 l/m2 in 1 Std. -
So, 03.07. 18:00 0.0 l/m2 in 1 Std. -
So, 03.07. 17:30 0.0 l/m2 in 1 Std. -
So, 03.07. 17:00 0.0 l/m2 in 1 Std. -
Ortszeit Stärke Spitze Richtung
km/h Bft. km/h Grad Sektor
So, 03.07. 20:00 4 1 25 260° W
So, 03.07. 14:00 7 2 22 280° W
So, 03.07. 8:00 4 1 14 110° O
So, 03.07. 2:00 4 1 11 120° SO
Sa, 02.07. 20:00 7 2 22 80° O
Sa, 02.07. 14:00 9 2 26 50° NO
Sa, 02.07. 8:00 4 1 7 190° S
Sa, 02.07. 2:00 6 1 9 110° O
Ortszeit Stärke Spitze Richtung
km/h Bft. km/h Grad Sektor
So, 03.07. 20:00 4 1 18 260° W
So, 03.07. 19:50 4 1 - 260° W
So, 03.07. 19:40 7 2 - 270° W
So, 03.07. 19:30 9 2 19 280° W
So, 03.07. 19:20 9 2 - 280° W
So, 03.07. 19:10 7 2 - 280° W
So, 03.07. 19:00 7 2 25 290° W
So, 03.07. 18:30 11 2 25 290° W
So, 03.07. 18:00 7 2 25 310° NW
So, 03.07. 17:30 11 2 18 300° NW
So, 03.07. 17:00 11 2 25 280° W
Ortszeit Untergrenze Bedeckung Gattung
total tief tief mittel hoch
So, 03.07. 20:00 3000 m 4/8 4/8 - - -
So, 03.07. 14:00 - 0/8 0/8 - - -
So, 03.07. 8:00 - 0/8 0/8 - - -
So, 03.07. 2:00 3300 m 1/8 1/8 - - -
Sa, 02.07. 20:00 - 0/8 0/8 - - -
Sa, 02.07. 14:00 - 0/8 0/8 - - -
Sa, 02.07. 8:00 30 m 8/8 8/8 - - -
Sa, 02.07. 2:00 1800 m 4/8 4/8 - - -
Ortszeit Bedeckungsgrad in Achtel und Wolkenuntergrenze
So, 03.07. 20:00 3(3000m) 4(3900m)
So, 03.07. 19:50 3(3000m) 4(3900m)
So, 03.07. 19:40 6
So, 03.07. 19:30 6(3000m)
So, 03.07. 19:20 6(3000m)
So, 03.07. 19:10 5
So, 03.07. 19:00 1(3900m)
So, 03.07. 18:30 keine Wolken
So, 03.07. 18:00 keine Wolken
So, 03.07. 17:30 1(7200m)
So, 03.07. 17:00 7(6900m)
Ortszeit Luftdruck NN (hPa) Tendenz (hPa in 3 Std.)
So, 03.07. 20:00 1015 - 0,8
So, 03.07. 14:00 1016 - 0,8
So, 03.07. 8:00 1020 + 0,7
So, 03.07. 2:00 1020 + 0,3
Sa, 02.07. 20:00 1017 - 0,8
Sa, 02.07. 14:00 1019 - 1,0
Sa, 02.07. 8:00 1024 + 0,1
Sa, 02.07. 2:00 1025 + 0,2
Ortszeit Luftdruck NN (hPa) Tendenz (hPa in 3 Std.)
So, 03.07. 20:00 1015 - 0,8
So, 03.07. 19:50 1015 keine Meldung
So, 03.07. 19:40 1015 keine Meldung
So, 03.07. 19:30 1015 - 0,8
So, 03.07. 19:20 1015 keine Meldung
So, 03.07. 19:10 1015 keine Meldung
So, 03.07. 19:00 1015 - 0,8
So, 03.07. 18:30 1015 - 0,8
So, 03.07. 18:00 1015 - 0,9
So, 03.07. 17:30 1015 - 0,9
So, 03.07. 17:00 1015 - 0,8
Ortszeit Schneehöhe (cm)
So, 03.07. 20:00 0
So, 03.07. 14:00 0
So, 03.07. 8:00 0
So, 03.07. 2:00 0
Sa, 02.07. 20:00 0
Sa, 02.07. 14:00 0
Sa, 02.07. 8:00 0
Sa, 02.07. 2:00 0
Ortszeit Schneehöhe (cm)
So, 03.07. 20:00 0
So, 03.07. 19:50 0
So, 03.07. 19:40 0
So, 03.07. 19:30 0
So, 03.07. 19:20 0
So, 03.07. 19:10 0
So, 03.07. 19:00 0
So, 03.07. 18:30 0
So, 03.07. 18:00 0
So, 03.07. 17:30 0
So, 03.07. 17:00 0
Link zu dieser Seite / Seite empfehlen

Das Wetter in ...